sensor_id;sensor_type;location;lat;lon;timestamp;P1;durP1;ratioP1;P2;durP2;ratioP2
42006;SDS011;27696;42.704;23.304;2023-04-19T00:02:15;2.08;;;1.52;;
42006;SDS011;27696;42.704;23.304;2023-04-19T00:04:43;2.13;;;1.70;;
42006;SDS011;27696;42.704;23.304;2023-04-19T00:07:10;3.63;;;2.60;;
42006;SDS011;27696;42.704;23.304;2023-04-19T00:09:35;2.92;;;2.10;;
42006;SDS011;27696;42.704;23.304;2023-04-19T00:12:01;4.10;;;2.33;;
42006;SDS011;27696;42.704;23.304;2023-04-19T00:14:27;3.75;;;2.10;;
42006;SDS011;27696;42.704;23.304;2023-04-19T00:16:53;3.28;;;2.13;;
42006;SDS011;27696;42.704;23.304;2023-04-19T00:19:18;3.03;;;2.35;;
42006;SDS011;27696;42.704;23.304;2023-04-19T00:21:43;3.00;;;2.17;;
42006;SDS011;27696;42.704;23.304;2023-04-19T00:24:09;2.78;;;2.08;;
42006;SDS011;27696;42.704;23.304;2023-04-19T00:26:34;2.80;;;2.17;;
42006;SDS011;27696;42.704;23.304;2023-04-19T00:29:00;2.63;;;2.20;;
42006;SDS011;27696;42.704;23.304;2023-04-19T00:31:25;2.90;;;2.10;;
42006;SDS011;27696;42.704;23.304;2023-04-19T00:33:51;5.45;;;2.05;;
42006;SDS011;27696;42.704;23.304;2023-04-19T00:36:16;2.83;;;1.98;;
42006;SDS011;27696;42.704;23.304;2023-04-19T00:38:41;3.05;;;1.85;;
42006;SDS011;27696;42.704;23.304;2023-04-19T00:41:07;3.10;;;2.05;;
42006;SDS011;27696;42.704;23.304;2023-04-19T00:43:32;3.92;;;1.90;;
42006;SDS011;27696;42.704;23.304;2023-04-19T00:45:58;4.60;;;2.10;;
42006;SDS011;27696;42.704;23.304;2023-04-19T00:48:25;1.90;;;1.63;;
42006;SDS011;27696;42.704;23.304;2023-04-19T00:50:50;2.30;;;2.10;;
42006;SDS011;27696;42.704;23.304;2023-04-19T00:53:16;3.65;;;2.10;;
42006;SDS011;27696;42.704;23.304;2023-04-19T00:55:41;6.03;;;2.50;;
42006;SDS011;27696;42.704;23.304;2023-04-19T00:58:07;3.05;;;2.17;;
42006;SDS011;27696;42.704;23.304;2023-04-19T01:00:33;3.55;;;2.17;;
42006;SDS011;27696;42.704;23.304;2023-04-19T01:03:00;4.25;;;2.72;;
42006;SDS011;27696;42.704;23.304;2023-04-19T01:05:25;2.42;;;2.15;;
42006;SDS011;27696;42.704;23.304;2023-04-19T01:07:51;4.22;;;2.50;;
42006;SDS011;27696;42.704;23.304;2023-04-19T01:10:16;3.15;;;2.20;;
42006;SDS011;27696;42.704;23.304;2023-04-19T01:12:42;5.47;;;2.38;;
42006;SDS011;27696;42.704;23.304;2023-04-19T01:15:07;5.15;;;2.17;;
42006;SDS011;27696;42.704;23.304;2023-04-19T01:17:33;4.80;;;2.50;;
42006;SDS011;27696;42.704;23.304;2023-04-19T01:20:02;2.38;;;2.15;;
42006;SDS011;27696;42.704;23.304;2023-04-19T01:22:31;2.50;;;2.00;;
42006;SDS011;27696;42.704;23.304;2023-04-19T01:24:57;2.78;;;2.42;;
42006;SDS011;27696;42.704;23.304;2023-04-19T01:27:22;3.40;;;2.00;;
42006;SDS011;27696;42.704;23.304;2023-04-19T01:29:48;2.30;;;2.10;;
42006;SDS011;27696;42.704;23.304;2023-04-19T01:32:13;3.95;;;1.88;;
42006;SDS011;27696;42.704;23.304;2023-04-19T01:34:39;2.10;;;1.80;;
42006;SDS011;27696;42.704;23.304;2023-04-19T01:37:06;2.55;;;2.35;;
42006;SDS011;27696;42.704;23.304;2023-04-19T01:39:31;3.38;;;2.10;;
42006;SDS011;27696;42.704;23.304;2023-04-19T01:41:57;3.03;;;2.30;;
42006;SDS011;27696;42.704;23.304;2023-04-19T01:44:22;3.83;;;2.65;;
42006;SDS011;27696;42.704;23.304;2023-04-19T01:46:47;3.70;;;2.10;;
42006;SDS011;27696;42.704;23.304;2023-04-19T01:49:13;3.35;;;2.30;;
42006;SDS011;27696;42.704;23.304;2023-04-19T01:51:38;2.55;;;2.35;;
42006;SDS011;27696;42.704;23.304;2023-04-19T01:54:04;3.78;;;2.30;;
42006;SDS011;27696;42.704;23.304;2023-04-19T01:56:29;3.75;;;2.70;;
42006;SDS011;27696;42.704;23.304;2023-04-19T01:58:55;5.00;;;2.40;;
42006;SDS011;27696;42.704;23.304;2023-04-19T02:01:20;4.78;;;2.47;;
42006;SDS011;27696;42.704;23.304;2023-04-19T02:03:46;4.65;;;2.60;;
42006;SDS011;27696;42.704;23.304;2023-04-19T02:06:12;5.00;;;2.67;;
42006;SDS011;27696;42.704;23.304;2023-04-19T02:08:38;3.65;;;2.60;;
42006;SDS011;27696;42.704;23.304;2023-04-19T02:11:07;3.05;;;2.78;;
42006;SDS011;27696;42.704;23.304;2023-04-19T02:13:38;3.10;;;2.80;;
42006;SDS011;27696;42.704;23.304;2023-04-19T02:16:04;3.17;;;2.78;;
42006;SDS011;27696;42.704;23.304;2023-04-19T02:18:30;3.92;;;3.05;;
42006;SDS011;27696;42.704;23.304;2023-04-19T02:20:56;4.05;;;2.90;;
42006;SDS011;27696;42.704;23.304;2023-04-19T02:23:22;3.42;;;3.13;;
42006;SDS011;27696;42.704;23.304;2023-04-19T02:25:48;6.03;;;3.40;;
42006;SDS011;27696;42.704;23.304;2023-04-19T02:28:13;3.40;;;2.95;;
42006;SDS011;27696;42.704;23.304;2023-04-19T02:30:39;3.53;;;3.10;;
42006;SDS011;27696;42.704;23.304;2023-04-19T02:33:04;3.67;;;3.30;;
42006;SDS011;27696;42.704;23.304;2023-04-19T02:35:30;6.18;;;3.40;;
42006;SDS011;27696;42.704;23.304;2023-04-19T02:37:55;4.18;;;3.40;;
42006;SDS011;27696;42.704;23.304;2023-04-19T02:40:21;4.00;;;3.60;;
42006;SDS011;27696;42.704;23.304;2023-04-19T02:42:47;4.75;;;3.30;;
42006;SDS011;27696;42.704;23.304;2023-04-19T02:45:13;3.85;;;3.42;;
42006;SDS011;27696;42.704;23.304;2023-04-19T02:47:38;6.18;;;3.60;;
42006;SDS011;27696;42.704;23.304;2023-04-19T02:50:04;3.85;;;3.45;;
42006;SDS011;27696;42.704;23.304;2023-04-19T02:52:30;4.80;;;3.72;;
42006;SDS011;27696;42.704;23.304;2023-04-19T02:54:55;3.72;;;3.42;;
42006;SDS011;27696;42.704;23.304;2023-04-19T02:57:21;3.88;;;3.47;;
42006;SDS011;27696;42.704;23.304;2023-04-19T02:59:46;4.75;;;3.60;;
42006;SDS011;27696;42.704;23.304;2023-04-19T03:02:12;3.75;;;3.45;;
42006;SDS011;27696;42.704;23.304;2023-04-19T03:04:37;7.97;;;4.00;;
42006;SDS011;27696;42.704;23.304;2023-04-19T03:07:02;4.32;;;3.92;;
42006;SDS011;27696;42.704;23.304;2023-04-19T03:09:28;8.13;;;3.83;;
42006;SDS011;27696;42.704;23.304;2023-04-19T03:11:53;4.88;;;4.05;;
42006;SDS011;27696;42.704;23.304;2023-04-19T03:14:19;5.07;;;4.57;;
42006;SDS011;27696;42.704;23.304;2023-04-19T03:16:44;4.30;;;3.90;;
42006;SDS011;27696;42.704;23.304;2023-04-19T03:19:10;4.45;;;4.05;;
42006;SDS011;27696;42.704;23.304;2023-04-19T03:21:35;4.40;;;4.00;;
42006;SDS011;27696;42.704;23.304;2023-04-19T03:24:01;4.53;;;4.07;;
42006;SDS011;27696;42.704;23.304;2023-04-19T03:26:26;4.50;;;3.90;;
42006;SDS011;27696;42.704;23.304;2023-04-19T03:28:52;4.30;;;4.00;;
42006;SDS011;27696;42.704;23.304;2023-04-19T03:31:17;4.53;;;4.13;;
42006;SDS011;27696;42.704;23.304;2023-04-19T03:33:42;4.72;;;4.20;;
42006;SDS011;27696;42.704;23.304;2023-04-19T03:36:08;5.72;;;4.22;;
42006;SDS011;27696;42.704;23.304;2023-04-19T03:38:33;4.50;;;4.07;;
42006;SDS011;27696;42.704;23.304;2023-04-19T03:40:59;4.30;;;3.92;;
42006;SDS011;27696;42.704;23.304;2023-04-19T03:43:24;4.55;;;4.10;;
42006;SDS011;27696;42.704;23.304;2023-04-19T03:45:50;4.38;;;3.97;;
42006;SDS011;27696;42.704;23.304;2023-04-19T03:48:16;7.72;;;4.55;;
42006;SDS011;27696;42.704;23.304;2023-04-19T03:50:41;5.20;;;4.70;;
42006;SDS011;27696;42.704;23.304;2023-04-19T03:53:07;5.55;;;4.30;;
42006;SDS011;27696;42.704;23.304;2023-04-19T03:55:32;4.38;;;4.07;;
42006;SDS011;27696;42.704;23.304;2023-04-19T03:57:57;4.65;;;4.25;;
42006;SDS011;27696;42.704;23.304;2023-04-19T04:00:23;5.15;;;4.20;;
42006;SDS011;27696;42.704;23.304;2023-04-19T04:02:48;4.88;;;4.47;;
42006;SDS011;27696;42.704;23.304;2023-04-19T04:05:14;5.13;;;4.63;;
42006;SDS011;27696;42.704;23.304;2023-04-19T04:07:39;5.07;;;4.55;;
42006;SDS011;27696;42.704;23.304;2023-04-19T04:10:05;5.18;;;4.70;;
42006;SDS011;27696;42.704;23.304;2023-04-19T04:12:31;4.50;;;4.10;;
42006;SDS011;27696;42.704;23.304;2023-04-19T04:14:56;7.10;;;4.72;;
42006;SDS011;27696;42.704;23.304;2023-04-19T04:17:22;5.38;;;4.88;;
42006;SDS011;27696;42.704;23.304;2023-04-19T04:19:48;5.18;;;4.68;;
42006;SDS011;27696;42.704;23.304;2023-04-19T04:22:14;5.20;;;4.70;;
42006;SDS011;27696;42.704;23.304;2023-04-19T04:24:41;5.50;;;5.00;;
42006;SDS011;27696;42.704;23.304;2023-04-19T04:27:07;7.25;;;5.13;;
42006;SDS011;27696;42.704;23.304;2023-04-19T04:29:37;6.13;;;5.53;;
42006;SDS011;27696;42.704;23.304;2023-04-19T04:32:06;5.72;;;5.25;;
42006;SDS011;27696;42.704;23.304;2023-04-19T04:34:34;6.10;;;5.28;;
42006;SDS011;27696;42.704;23.304;2023-04-19T04:37:00;8.45;;;5.50;;
42006;SDS011;27696;42.704;23.304;2023-04-19T04:39:26;5.80;;;5.30;;
42006;SDS011;27696;42.704;23.304;2023-04-19T04:41:52;5.43;;;4.85;;
42006;SDS011;27696;42.704;23.304;2023-04-19T04:44:17;5.93;;;5.30;;
42006;SDS011;27696;42.704;23.304;2023-04-19T04:46:44;9.07;;;5.22;;
42006;SDS011;27696;42.704;23.304;2023-04-19T04:49:10;7.00;;;5.18;;
42006;SDS011;27696;42.704;23.304;2023-04-19T04:51:36;5.32;;;4.82;;
42006;SDS011;27696;42.704;23.304;2023-04-19T04:54:01;9.50;;;5.85;;
42006;SDS011;27696;42.704;23.304;2023-04-19T04:56:27;8.30;;;5.57;;
42006;SDS011;27696;42.704;23.304;2023-04-19T04:58:52;5.32;;;4.82;;
42006;SDS011;27696;42.704;23.304;2023-04-19T05:01:18;6.88;;;5.68;;
42006;SDS011;27696;42.704;23.304;2023-04-19T05:03:44;9.77;;;5.78;;
42006;SDS011;27696;42.704;23.304;2023-04-19T05:06:10;6.35;;;5.75;;
42006;SDS011;27696;42.704;23.304;2023-04-19T05:08:35;6.25;;;5.13;;
42006;SDS011;27696;42.704;23.304;2023-04-19T05:11:00;9.02;;;5.75;;
42006;SDS011;27696;42.704;23.304;2023-04-19T05:13:26;7.82;;;6.88;;
42006;SDS011;27696;42.704;23.304;2023-04-19T05:15:52;6.22;;;5.55;;
42006;SDS011;27696;42.704;23.304;2023-04-19T05:18:18;8.98;;;5.50;;
42006;SDS011;27696;42.704;23.304;2023-04-19T05:20:43;6.13;;;5.55;;
42006;SDS011;27696;42.704;23.304;2023-04-19T05:23:10;6.43;;;5.82;;
42006;SDS011;27696;42.704;23.304;2023-04-19T05:25:36;7.70;;;5.90;;
42006;SDS011;27696;42.704;23.304;2023-04-19T05:28:01;5.85;;;5.30;;
42006;SDS011;27696;42.704;23.304;2023-04-19T05:30:27;7.80;;;5.85;;
42006;SDS011;27696;42.704;23.304;2023-04-19T05:32:53;9.88;;;5.68;;
42006;SDS011;27696;42.704;23.304;2023-04-19T05:35:19;5.78;;;5.15;;
42006;SDS011;27696;42.704;23.304;2023-04-19T05:37:44;6.72;;;5.38;;
42006;SDS011;27696;42.704;23.304;2023-04-19T05:40:10;7.18;;;5.35;;
42006;SDS011;27696;42.704;23.304;2023-04-19T05:42:36;6.75;;;5.93;;
42006;SDS011;27696;42.704;23.304;2023-04-19T05:45:02;6.50;;;5.80;;
42006;SDS011;27696;42.704;23.304;2023-04-19T05:47:28;7.50;;;5.70;;
42006;SDS011;27696;42.704;23.304;2023-04-19T05:49:54;7.55;;;5.72;;
42006;SDS011;27696;42.704;23.304;2023-04-19T05:52:19;6.40;;;5.80;;
42006;SDS011;27696;42.704;23.304;2023-04-19T05:54:45;6.38;;;5.47;;
42006;SDS011;27696;42.704;23.304;2023-04-19T05:57:10;5.43;;;4.93;;
42006;SDS011;27696;42.704;23.304;2023-04-19T05:59:35;8.07;;;5.68;;
42006;SDS011;27696;42.704;23.304;2023-04-19T06:02:01;5.88;;;5.32;;
42006;SDS011;27696;42.704;23.304;2023-04-19T06:04:27;6.30;;;5.70;;
42006;SDS011;27696;42.704;23.304;2023-04-19T06:06:52;5.95;;;5.15;;
42006;SDS011;27696;42.704;23.304;2023-04-19T06:09:17;6.70;;;5.35;;
42006;SDS011;27696;42.704;23.304;2023-04-19T06:11:43;7.25;;;5.38;;
42006;SDS011;27696;42.704;23.304;2023-04-19T06:14:09;5.90;;;5.35;;
42006;SDS011;27696;42.704;23.304;2023-04-19T06:16:36;5.80;;;5.30;;
42006;SDS011;27696;42.704;23.304;2023-04-19T06:19:01;6.38;;;5.60;;
42006;SDS011;27696;42.704;23.304;2023-04-19T06:21:30;5.70;;;5.20;;
42006;SDS011;27696;42.704;23.304;2023-04-19T06:23:56;6.57;;;5.45;;
42006;SDS011;27696;42.704;23.304;2023-04-19T06:26:22;6.35;;;5.75;;
42006;SDS011;27696;42.704;23.304;2023-04-19T06:28:47;7.35;;;5.40;;
42006;SDS011;27696;42.704;23.304;2023-04-19T06:31:13;6.40;;;5.68;;
42006;SDS011;27696;42.704;23.304;2023-04-19T06:33:38;5.70;;;5.20;;
42006;SDS011;27696;42.704;23.304;2023-04-19T06:36:04;5.30;;;4.80;;
42006;SDS011;27696;42.704;23.304;2023-04-19T06:38:30;5.93;;;4.65;;
42006;SDS011;27696;42.704;23.304;2023-04-19T06:40:55;9.02;;;5.93;;
42006;SDS011;27696;42.704;23.304;2023-04-19T06:43:20;8.20;;;4.70;;
42006;SDS011;27696;42.704;23.304;2023-04-19T06:45:46;7.10;;;5.43;;
42006;SDS011;27696;42.704;23.304;2023-04-19T06:48:11;8.73;;;6.07;;
42006;SDS011;27696;42.704;23.304;2023-04-19T06:50:37;8.35;;;5.20;;
42006;SDS011;27696;42.704;23.304;2023-04-19T06:53:02;9.73;;;6.60;;
42006;SDS011;27696;42.704;23.304;2023-04-19T06:55:28;8.80;;;5.47;;
42006;SDS011;27696;42.704;23.304;2023-04-19T06:57:53;5.63;;;4.88;;
42006;SDS011;27696;42.704;23.304;2023-04-19T07:00:19;5.57;;;5.05;;
42006;SDS011;27696;42.704;23.304;2023-04-19T07:02:45;5.68;;;4.90;;
42006;SDS011;27696;42.704;23.304;2023-04-19T07:05:10;7.20;;;5.63;;
42006;SDS011;27696;42.704;23.304;2023-04-19T07:07:37;6.38;;;5.57;;
42006;SDS011;27696;42.704;23.304;2023-04-19T07:10:05;5.63;;;4.57;;
42006;SDS011;27696;42.704;23.304;2023-04-19T07:12:31;9.50;;;5.13;;
42006;SDS011;27696;42.704;23.304;2023-04-19T07:14:57;5.15;;;4.65;;
42006;SDS011;27696;42.704;23.304;2023-04-19T07:17:22;5.05;;;4.22;;
42006;SDS011;27696;42.704;23.304;2023-04-19T07:19:48;5.22;;;4.72;;
42006;SDS011;27696;42.704;23.304;2023-04-19T07:22:13;4.60;;;4.20;;
42006;SDS011;27696;42.704;23.304;2023-04-19T07:24:39;4.22;;;3.85;;
42006;SDS011;27696;42.704;23.304;2023-04-19T07:27:06;7.88;;;4.35;;
42006;SDS011;27696;42.704;23.304;2023-04-19T07:29:35;8.63;;;4.35;;
42006;SDS011;27696;42.704;23.304;2023-04-19T07:32:01;6.63;;;4.90;;
42006;SDS011;27696;42.704;23.304;2023-04-19T07:34:27;4.80;;;4.40;;
42006;SDS011;27696;42.704;23.304;2023-04-19T07:36:52;6.60;;;4.30;;
42006;SDS011;27696;42.704;23.304;2023-04-19T07:39:18;4.65;;;4.22;;
42006;SDS011;27696;42.704;23.304;2023-04-19T07:41:44;6.03;;;4.28;;
42006;SDS011;27696;42.704;23.304;2023-04-19T07:44:09;4.40;;;4.00;;
42006;SDS011;27696;42.704;23.304;2023-04-19T07:46:36;6.10;;;3.88;;
42006;SDS011;27696;42.704;23.304;2023-04-19T07:49:01;5.32;;;4.32;;
42006;SDS011;27696;42.704;23.304;2023-04-19T07:51:27;5.20;;;4.18;;
42006;SDS011;27696;42.704;23.304;2023-04-19T07:53:52;6.72;;;3.90;;
42006;SDS011;27696;42.704;23.304;2023-04-19T07:56:18;5.97;;;3.80;;
42006;SDS011;27696;42.704;23.304;2023-04-19T07:58:44;4.65;;;4.00;;
42006;SDS011;27696;42.704;23.304;2023-04-19T08:01:09;4.35;;;3.95;;
42006;SDS011;27696;42.704;23.304;2023-04-19T08:03:35;4.68;;;4.22;;
42006;SDS011;27696;42.704;23.304;2023-04-19T08:06:02;4.32;;;3.50;;
42006;SDS011;27696;42.704;23.304;2023-04-19T08:08:29;4.68;;;4.00;;
42006;SDS011;27696;42.704;23.304;2023-04-19T08:10:55;4.03;;;3.47;;
42006;SDS011;27696;42.704;23.304;2023-04-19T08:13:21;4.35;;;3.50;;
42006;SDS011;27696;42.704;23.304;2023-04-19T08:15:46;4.22;;;2.88;;
42006;SDS011;27696;42.704;23.304;2023-04-19T08:18:11;6.93;;;3.80;;
42006;SDS011;27696;42.704;23.304;2023-04-19T08:20:37;3.60;;;3.25;;
42006;SDS011;27696;42.704;23.304;2023-04-19T08:23:02;6.60;;;3.53;;
42006;SDS011;27696;42.704;23.304;2023-04-19T08:25:30;5.25;;;3.17;;
42006;SDS011;27696;42.704;23.304;2023-04-19T08:27:56;4.00;;;3.58;;
42006;SDS011;27696;42.704;23.304;2023-04-19T08:30:22;4.75;;;3.47;;
42006;SDS011;27696;42.704;23.304;2023-04-19T08:32:48;6.85;;;3.60;;
42006;SDS011;27696;42.704;23.304;2023-04-19T08:35:15;3.63;;;3.33;;
42006;SDS011;27696;42.704;23.304;2023-04-19T08:37:40;5.00;;;3.35;;
42006;SDS011;27696;42.704;23.304;2023-04-19T08:40:06;3.10;;;2.80;;
42006;SDS011;27696;42.704;23.304;2023-04-19T08:42:32;6.28;;;3.22;;
42006;SDS011;27696;42.704;23.304;2023-04-19T08:45:01;5.47;;;3.75;;
42006;SDS011;27696;42.704;23.304;2023-04-19T08:47:31;4.70;;;3.30;;
42006;SDS011;27696;42.704;23.304;2023-04-19T08:49:57;4.82;;;2.90;;
42006;SDS011;27696;42.704;23.304;2023-04-19T08:52:25;3.08;;;2.45;;
42006;SDS011;27696;42.704;23.304;2023-04-19T08:54:51;3.88;;;3.08;;
42006;SDS011;27696;42.704;23.304;2023-04-19T08:57:19;4.25;;;2.75;;
42006;SDS011;27696;42.704;23.304;2023-04-19T08:59:44;4.47;;;3.20;;
42006;SDS011;27696;42.704;23.304;2023-04-19T09:02:16;3.72;;;3.20;;
42006;SDS011;27696;42.704;23.304;2023-04-19T09:04:41;4.80;;;3.30;;
42006;SDS011;27696;42.704;23.304;2023-04-19T09:07:07;6.18;;;2.75;;
42006;SDS011;27696;42.704;23.304;2023-04-19T09:09:32;3.47;;;2.40;;
42006;SDS011;27696;42.704;23.304;2023-04-19T09:11:58;2.67;;;2.47;;
42006;SDS011;27696;42.704;23.304;2023-04-19T09:14:24;3.10;;;2.58;;
42006;SDS011;27696;42.704;23.304;2023-04-19T09:16:50;4.25;;;2.13;;
42006;SDS011;27696;42.704;23.304;2023-04-19T09:19:16;2.50;;;2.30;;
42006;SDS011;27696;42.704;23.304;2023-04-19T09:21:42;2.35;;;2.15;;
42006;SDS011;27696;42.704;23.304;2023-04-19T09:24:08;2.60;;;2.38;;
42006;SDS011;27696;42.704;23.304;2023-04-19T09:26:34;3.20;;;2.60;;
42006;SDS011;27696;42.704;23.304;2023-04-19T09:29:01;3.92;;;2.70;;
42006;SDS011;27696;42.704;23.304;2023-04-19T09:31:31;3.13;;;2.55;;
42006;SDS011;27696;42.704;23.304;2023-04-19T09:34:13;3.22;;;2.92;;
42006;SDS011;27696;42.704;23.304;2023-04-19T09:36:40;4.50;;;2.63;;
42006;SDS011;27696;42.704;23.304;2023-04-19T09:39:06;6.03;;;2.83;;
42006;SDS011;27696;42.704;23.304;2023-04-19T09:41:31;2.75;;;2.55;;
42006;SDS011;27696;42.704;23.304;2023-04-19T09:44:10;3.88;;;2.30;;
42006;SDS011;27696;42.704;23.304;2023-04-19T09:46:36;3.65;;;2.85;;
42006;SDS011;27696;42.704;23.304;2023-04-19T09:49:19;4.32;;;3.20;;
42006;SDS011;27696;42.704;23.304;2023-04-19T09:54:22;3.35;;;2.17;;
42006;SDS011;27696;42.704;23.304;2023-04-19T09:56:49;3.03;;;2.45;;
42006;SDS011;27696;42.704;23.304;2023-04-19T09:59:16;2.78;;;2.33;;
42006;SDS011;27696;42.704;23.304;2023-04-19T10:01:43;2.83;;;2.25;;
42006;SDS011;27696;42.704;23.304;2023-04-19T10:04:12;3.13;;;2.47;;
42006;SDS011;27696;42.704;23.304;2023-04-19T10:06:46;4.23;;;2.43;;
42006;SDS011;27696;42.704;23.304;2023-04-19T10:09:12;4.05;;;2.80;;
42006;SDS011;27696;42.704;23.304;2023-04-19T10:11:38;4.82;;;2.70;;
42006;SDS011;27696;42.704;23.304;2023-04-19T10:14:04;3.15;;;2.90;;
42006;SDS011;27696;42.704;23.304;2023-04-19T10:16:31;4.78;;;2.47;;
42006;SDS011;27696;42.704;23.304;2023-04-19T10:18:58;3.53;;;2.88;;
42006;SDS011;27696;42.704;23.304;2023-04-19T10:21:27;2.88;;;2.47;;
42006;SDS011;27696;42.704;23.304;2023-04-19T10:23:53;2.42;;;2.22;;
42006;SDS011;27696;42.704;23.304;2023-04-19T10:26:19;2.80;;;2.58;;
42006;SDS011;27696;42.704;23.304;2023-04-19T10:28:46;3.33;;;2.67;;
42006;SDS011;27696;42.704;23.304;2023-04-19T10:31:12;3.28;;;2.60;;
42006;SDS011;27696;42.704;23.304;2023-04-19T10:33:38;2.30;;;2.10;;
42006;SDS011;27696;42.704;23.304;2023-04-19T10:36:08;7.38;;;2.55;;
42006;SDS011;27696;42.704;23.304;2023-04-19T10:41:11;2.70;;;2.50;;
42006;SDS011;27696;42.704;23.304;2023-04-19T10:43:38;3.97;;;2.70;;
42006;SDS011;27696;42.704;23.304;2023-04-19T10:51:17;2.50;;;2.30;;
42006;SDS011;27696;42.704;23.304;2023-04-19T11:07:17;3.13;;;2.25;;
42006;SDS011;27696;42.704;23.304;2023-04-19T11:09:44;6.47;;;2.88;;
42006;SDS011;27696;42.704;23.304;2023-04-19T11:12:11;2.72;;;2.50;;
42006;SDS011;27696;42.704;23.304;2023-04-19T11:14:54;2.88;;;2.65;;
42006;SDS011;27696;42.704;23.304;2023-04-19T11:17:22;4.63;;;3.20;;
42006;SDS011;27696;42.704;23.304;2023-04-19T11:19:52;3.42;;;2.15;;
42006;SDS011;27696;42.704;23.304;2023-04-19T11:22:31;3.70;;;2.45;;
42006;SDS011;27696;42.704;23.304;2023-04-19T11:25:06;2.83;;;2.53;;
42006;SDS011;27696;42.704;23.304;2023-04-19T11:27:34;3.20;;;2.95;;
42006;SDS011;27696;42.704;23.304;2023-04-19T11:30:04;4.45;;;2.67;;
42006;SDS011;27696;42.704;23.304;2023-04-19T11:32:31;4.47;;;2.40;;
42006;SDS011;27696;42.704;23.304;2023-04-19T11:34:57;3.95;;;3.28;;
42006;SDS011;27696;42.704;23.304;2023-04-19T11:37:31;3.72;;;2.33;;
42006;SDS011;27696;42.704;23.304;2023-04-19T11:39:57;4.53;;;2.63;;
42006;SDS011;27696;42.704;23.304;2023-04-19T11:42:23;2.63;;;2.10;;
42006;SDS011;27696;42.704;23.304;2023-04-19T11:44:49;3.53;;;2.15;;
42006;SDS011;27696;42.704;23.304;2023-04-19T11:47:15;2.53;;;1.88;;
42006;SDS011;27696;42.704;23.304;2023-04-19T11:49:41;3.88;;;2.28;;
42006;SDS011;27696;42.704;23.304;2023-04-19T11:52:06;1.92;;;1.80;;
42006;SDS011;27696;42.704;23.304;2023-04-19T11:54:32;3.97;;;2.13;;
42006;SDS011;27696;42.704;23.304;2023-04-19T11:57:04;2.20;;;2.00;;
42006;SDS011;27696;42.704;23.304;2023-04-19T11:59:32;2.38;;;1.92;;
42006;SDS011;27696;42.704;23.304;2023-04-19T12:02:08;2.60;;;2.28;;
42006;SDS011;27696;42.704;23.304;2023-04-19T12:04:35;2.65;;;2.40;;
42006;SDS011;27696;42.704;23.304;2023-04-19T12:07:01;2.03;;;1.83;;
42006;SDS011;27696;42.704;23.304;2023-04-19T12:09:28;2.25;;;1.85;;
42006;SDS011;27696;42.704;23.304;2023-04-19T12:11:53;3.28;;;1.77;;
42006;SDS011;27696;42.704;23.304;2023-04-19T12:14:20;2.78;;;1.80;;
42006;SDS011;27696;42.704;23.304;2023-04-19T12:17:08;2.50;;;1.40;;
42006;SDS011;27696;42.704;23.304;2023-04-19T12:19:45;3.88;;;1.50;;
42006;SDS011;27696;42.704;23.304;2023-04-19T12:22:15;2.08;;;1.95;;
42006;SDS011;27696;42.704;23.304;2023-04-19T12:24:43;2.50;;;1.88;;
42006;SDS011;27696;42.704;23.304;2023-04-19T12:27:09;2.70;;;2.05;;
42006;SDS011;27696;42.704;23.304;2023-04-19T12:29:35;2.60;;;2.25;;
42006;SDS011;27696;42.704;23.304;2023-04-19T12:32:01;2.55;;;2.35;;
42006;SDS011;27696;42.704;23.304;2023-04-19T12:34:27;4.32;;;2.67;;
42006;SDS011;27696;42.704;23.304;2023-04-19T12:36:53;3.83;;;3.42;;
42006;SDS011;27696;42.704;23.304;2023-04-19T12:39:19;3.70;;;2.95;;
42006;SDS011;27696;42.704;23.304;2023-04-19T12:41:44;7.07;;;3.28;;
42006;SDS011;27696;42.704;23.304;2023-04-19T12:44:12;5.22;;;3.80;;
42006;SDS011;27696;42.704;23.304;2023-04-19T12:46:38;5.90;;;4.60;;
42006;SDS011;27696;42.704;23.304;2023-04-19T12:49:03;5.80;;;5.22;;
42006;SDS011;27696;42.704;23.304;2023-04-19T12:51:29;6.22;;;5.63;;
42006;SDS011;27696;42.704;23.304;2023-04-19T12:53:55;10.45;;;9.43;;
42006;SDS011;27696;42.704;23.304;2023-04-19T12:56:21;9.63;;;7.30;;
42006;SDS011;27696;42.704;23.304;2023-04-19T12:58:46;9.55;;;6.45;;
42006;SDS011;27696;42.704;23.304;2023-04-19T13:01:12;6.28;;;2.78;;
42006;SDS011;27696;42.704;23.304;2023-04-19T13:03:37;3.47;;;2.00;;
42006;SDS011;27696;42.704;23.304;2023-04-19T13:06:03;2.55;;;1.63;;
42006;SDS011;27696;42.704;23.304;2023-04-19T13:08:28;3.70;;;1.60;;
42006;SDS011;27696;42.704;23.304;2023-04-19T13:10:54;2.97;;;2.30;;
42006;SDS011;27696;42.704;23.304;2023-04-19T13:13:20;3.50;;;1.95;;
42006;SDS011;27696;42.704;23.304;2023-04-19T13:15:45;3.75;;;2.20;;
42006;SDS011;27696;42.704;23.304;2023-04-19T13:18:11;6.05;;;2.28;;
42006;SDS011;27696;42.704;23.304;2023-04-19T13:20:36;4.40;;;2.30;;
42006;SDS011;27696;42.704;23.304;2023-04-19T13:23:02;3.78;;;2.53;;
42006;SDS011;27696;42.704;23.304;2023-04-19T13:25:27;4.30;;;2.83;;
42006;SDS011;27696;42.704;23.304;2023-04-19T13:27:52;5.07;;;2.50;;
42006;SDS011;27696;42.704;23.304;2023-04-19T13:30:18;3.88;;;2.80;;
42006;SDS011;27696;42.704;23.304;2023-04-19T13:32:43;10.90;;;2.75;;
42006;SDS011;27696;42.704;23.304;2023-04-19T13:35:09;11.73;;;3.13;;
42006;SDS011;27696;42.704;23.304;2023-04-19T13:37:34;4.95;;;2.63;;
42006;SDS011;27696;42.704;23.304;2023-04-19T13:40:00;6.03;;;2.25;;
42006;SDS011;27696;42.704;23.304;2023-04-19T13:42:26;4.30;;;2.60;;
42006;SDS011;27696;42.704;23.304;2023-04-19T13:44:53;21.77;;;3.05;;
42006;SDS011;27696;42.704;23.304;2023-04-19T13:47:18;2.80;;;1.90;;
42006;SDS011;27696;42.704;23.304;2023-04-19T13:49:43;3.50;;;2.17;;
42006;SDS011;27696;42.704;23.304;2023-04-19T13:52:09;8.60;;;1.85;;
42006;SDS011;27696;42.704;23.304;2023-04-19T13:54:35;6.32;;;2.30;;
42006;SDS011;27696;42.704;23.304;2023-04-19T13:57:00;3.30;;;2.40;;
42006;SDS011;27696;42.704;23.304;2023-04-19T13:59:26;2.83;;;1.73;;
42006;SDS011;27696;42.704;23.304;2023-04-19T14:01:54;2.38;;;1.73;;
42006;SDS011;27696;42.704;23.304;2023-04-19T14:04:20;9.25;;;2.00;;
42006;SDS011;27696;42.704;23.304;2023-04-19T14:06:45;4.20;;;1.70;;
42006;SDS011;27696;42.704;23.304;2023-04-19T14:09:12;3.35;;;1.92;;
42006;SDS011;27696;42.704;23.304;2023-04-19T14:11:37;5.00;;;1.67;;
42006;SDS011;27696;42.704;23.304;2023-04-19T14:14:03;2.17;;;1.60;;
42006;SDS011;27696;42.704;23.304;2023-04-19T14:16:28;13.93;;;2.20;;
42006;SDS011;27696;42.704;23.304;2023-04-19T14:18:54;4.93;;;2.30;;
42006;SDS011;27696;42.704;23.304;2023-04-19T14:21:19;6.55;;;1.80;;
42006;SDS011;27696;42.704;23.304;2023-04-19T14:23:45;1.95;;;1.75;;
42006;SDS011;27696;42.704;23.304;2023-04-19T14:26:10;5.53;;;2.45;;
42006;SDS011;27696;42.704;23.304;2023-04-19T14:28:36;1.70;;;1.52;;
42006;SDS011;27696;42.704;23.304;2023-04-19T14:31:01;2.63;;;1.63;;
42006;SDS011;27696;42.704;23.304;2023-04-19T14:33:27;3.60;;;2.50;;
42006;SDS011;27696;42.704;23.304;2023-04-19T14:35:52;6.05;;;4.70;;
42006;SDS011;27696;42.704;23.304;2023-04-19T14:38:18;4.22;;;2.70;;
42006;SDS011;27696;42.704;23.304;2023-04-19T14:40:43;3.75;;;2.75;;
42006;SDS011;27696;42.704;23.304;2023-04-19T14:43:10;8.73;;;3.42;;
42006;SDS011;27696;42.704;23.304;2023-04-19T14:45:35;7.30;;;2.88;;
42006;SDS011;27696;42.704;23.304;2023-04-19T14:48:01;8.85;;;2.70;;
42006;SDS011;27696;42.704;23.304;2023-04-19T14:50:26;5.28;;;3.30;;
42006;SDS011;27696;42.704;23.304;2023-04-19T14:52:52;2.97;;;2.65;;